Time;durP1;ratioP1;P1;durP2;ratioP2;P2;SDS_P1;SDS_P2;PMS_P1;PMS_P2;Temp;Humidity;BMP_temperature;BMP_pressure;BME280_temperature;BME280_humidity;BME280_pressure;Samples;Min_cycle;Max_cycle;Signal;HPM_P1;HPM_P2
2023/08/27 00:00:07;;;;;;;3.78;2.40;;;;;;;8.49;65.85;95895.63;6272276;28;20442;-70
2023/08/27 00:03:09;;;;;;;3.70;2.20;;;;;;;8.49;65.88;95887.78;6272515;28;20049;-70
2023/08/27 00:06:10;;;;;;;3.60;2.58;;;;;;;8.40;65.72;95872.69;6271675;28;20053;-70
2023/08/27 00:09:13;;;;;;;3.38;2.13;;;;;;;8.51;65.55;95883.22;6272156;28;20045;-71
2023/08/27 00:12:14;;;;;;;3.80;2.28;;;;;;;8.52;65.58;95881.44;6254837;28;20053;-70
2023/08/27 00:15:16;;;;;;;7.18;3.00;;;;;;;8.45;65.42;95870.56;6272607;28;20037;-70
2023/08/27 00:18:25;;;;;;;4.13;2.28;;;;;;;8.49;65.64;95885.16;6272673;28;20045;-70
2023/08/27 00:21:28;;;;;;;4.78;2.70;;;;;;;8.42;65.61;95873.41;6272860;28;20040;-70
2023/08/27 00:24:33;;;;;;;4.30;2.72;;;;;;;8.37;66.06;95872.88;6255151;28;20097;-71
2023/08/27 00:27:38;;;;;;;5.32;2.53;;;;;;;8.34;66.07;95878.34;6272196;28;20135;-71
2023/08/27 00:30:44;;;;;;;4.15;2.42;;;;;;;8.33;66.17;95876.69;6272517;28;20048;-70
2023/08/27 00:33:49;;;;;;;3.20;2.10;;;;;;;8.29;66.36;95880.44;6272274;28;20041;-70
2023/08/27 00:36:53;;;;;;;4.63;2.90;;;;;;;8.28;66.41;95884.03;6272087;28;20178;-70
2023/08/27 00:39:59;;;;;;;3.45;2.00;;;;;;;8.25;66.53;95884.25;6272190;28;20044;-70
2023/08/27 00:43:03;;;;;;;5.35;2.53;;;;;;;8.26;66.54;95886.75;6272113;28;20037;-70
2023/08/27 00:46:06;;;;;;;2.53;1.80;;;;;;;8.28;66.21;95878.78;6271977;28;20052;-71
2023/08/27 00:49:07;;;;;;;2.50;1.80;;;;;;;8.33;65.98;95877.50;6271709;28;20041;-70
2023/08/27 00:52:12;;;;;;;2.72;2.13;;;;;;;8.44;65.71;95889.88;6271841;28;20041;-70
2023/08/27 00:55:19;;;;;;;2.03;1.73;;;;;;;8.45;65.37;95894.16;6271639;28;20051;-70
2023/08/27 00:58:22;;;;;;;4.43;2.60;;;;;;;8.39;65.18;95889.38;6271714;28;20037;-70
2023/08/27 01:01:28;;;;;;;4.25;2.40;;;;;;;8.40;64.90;95892.81;6271399;28;20041;-70
2023/08/27 01:04:31;;;;;;;7.47;5.45;;;;;;;8.28;64.87;95900.59;6271260;28;20103;-70
2023/08/27 01:07:35;;;;;;;22.13;11.55;;;;;;;8.23;65.11;95894.81;6271360;28;20041;-71
2023/08/27 01:10:47;;;;;;;26.88;13.82;;;;;;;8.20;65.30;95896.84;6271458;28;20055;-70
2023/08/27 01:14:04;;;;;;;28.88;13.57;;;;;;;8.18;65.43;95907.44;6271391;28;20127;-70
2023/08/27 01:17:07;;;;;;;22.45;11.90;;;;;;;8.13;65.53;95896.44;6271082;28;20041;-70
2023/08/27 01:20:11;;;;;;;21.80;10.75;;;;;;;8.06;65.60;95901.25;6253266;28;20053;-70
2023/08/27 01:23:15;;;;;;;23.08;11.57;;;;;;;8.01;65.70;95898.16;6270938;28;20041;-70
2023/08/27 01:26:44;;;;;;;18.13;9.40;;;;;;;7.98;65.85;95893.13;6271021;28;20049;-70
2023/08/27 01:29:59;;;;;;;19.52;9.43;;;;;;;8.06;65.86;95905.66;6253571;28;20053;-70
2023/08/27 01:33:16;;;;;;;20.77;10.20;;;;;;;8.05;65.43;95891.72;6271635;28;20048;-70
2023/08/27 01:36:20;;;;;;;17.30;9.05;;;;;;;8.04;65.52;95895.31;6270746;28;20047;-71
2023/08/27 01:39:26;;;;;;;25.10;13.82;;;;;;;8.06;65.38;95890.78;6270961;28;20072;-70
2023/08/27 01:42:31;;;;;;;13.82;8.40;;;;;;;8.16;65.04;95895.41;6270641;28;20044;-70
2023/08/27 01:45:35;;;;;;;16.40;7.38;;;;;;;8.23;65.03;95891.38;6270828;28;20048;-70
2023/08/27 01:48:36;;;;;;;12.25;6.45;;;;;;;8.31;64.61;95889.06;6270461;28;20083;-70
2023/08/27 01:51:42;;;;;;;12.05;6.65;;;;;;;8.39;64.28;95897.22;6270561;28;20033;-70
2023/08/27 01:54:43;;;;;;;7.97;5.35;;;;;;;8.45;64.40;95891.53;6270283;28;20051;-70
2023/08/27 01:57:47;;;;;;;9.55;5.30;;;;;;;8.51;63.92;95888.47;6270117;28;20044;-70
2023/08/27 02:00:51;;;;;;;8.95;4.65;;;;;;;8.61;63.70;95895.69;6269528;28;20072;-70
2023/08/27 02:04:00;;;;;;;13.52;5.63;;;;;;;8.72;63.31;95893.13;6269965;28;20419;-71
2023/08/27 02:07:01;;;;;;;8.88;5.25;;;;;;;8.80;63.17;95888.13;6270016;28;20499;-70
2023/08/27 02:10:06;;;;;;;17.10;9.55;;;;;;;8.69;63.05;95873.22;6252076;28;20420;-69
2023/08/27 02:13:12;;;;;;;10.90;5.30;;;;;;;8.96;62.80;95901.81;6270004;28;20504;-71
2023/08/27 02:16:18;;;;;;;9.20;3.78;;;;;;;9.06;62.55;95901.13;6269874;28;20041;-69
2023/08/27 02:19:24;;;;;;;7.97;4.05;;;;;;;9.15;62.27;95900.44;6252499;28;20040;-71
2023/08/27 02:22:33;;;;;;;8.05;4.20;;;;;;;9.19;62.31;95899.25;6269864;28;20057;-71
2023/08/27 02:25:42;;;;;;;6.85;3.95;;;;;;;9.29;62.12;95908.13;6269694;28;20049;-70
2023/08/27 02:28:46;;;;;;;7.95;4.10;;;;;;;9.34;62.23;95895.50;6251881;28;20049;-70
2023/08/27 02:31:52;;;;;;;8.23;4.47;;;;;;;9.39;62.15;95903.84;6269646;28;20040;-70
2023/08/27 02:34:56;;;;;;;7.35;4.00;;;;;;;9.40;62.02;95883.69;6269480;28;20053;-69
2023/08/27 02:38:00;;;;;;;;;;;;;;;9.49;62.16;95897.91;6269702;28;20500;-69
2023/08/27 02:41:07;;;;;;;6.45;4.03;;;;;;;9.61;62.04;95902.22;6269330;28;19924;-69
2023/08/27 02:44:10;;;;;;;7.15;3.30;;;;;;;9.71;61.74;95897.94;6269385;28;20051;-69
2023/08/27 02:47:12;;;;;;;6.57;4.22;;;;;;;9.85;61.76;95900.34;6268618;28;20041;-70
2023/08/27 02:50:16;;;;;;;6.53;3.67;;;;;;;10.03;61.52;95899.88;6268575;28;20060;-71
2023/08/27 02:53:20;;;;;;;7.38;3.65;;;;;;;10.25;61.15;95901.66;6251453;28;20057;-70
2023/08/27 02:56:28;;;;;;;3.25;2.53;;;;;;;10.52;60.93;95898.63;6269182;28;20045;-69
2023/08/27 02:59:34;;;;;;;2.90;2.22;;;;;;;10.85;60.18;95888.97;6269257;28;20673;-70
2023/08/27 03:02:38;;;;;;;3.53;2.30;;;;;;;11.18;59.55;95896.75;6269252;28;20041;-69
2023/08/27 03:05:41;;;;;;;;;;;;;;;11.57;59.29;95889.06;6269533;28;20053;-68
2023/08/27 03:08:43;;;;;;;3.50;2.15;;;;;;;12.08;57.74;95901.44;6268162;28;19928;-69
2023/08/27 03:11:47;;;;;;;2.17;1.65;;;;;;;12.56;56.83;95895.47;6273179;28;20048;-71
2023/08/27 03:14:50;;;;;;;3.72;2.00;;;;;;;13.00;56.09;95893.31;6273776;28;20049;-69
2023/08/27 03:17:54;;;;;;;3.47;1.58;;;;;;;13.45;55.16;95887.50;6274032;28;20057;-71
2023/08/27 03:20:59;;;;;;;3.58;2.45;;;;;;;13.79;54.60;95889.66;6273440;28;20059;-69
2023/08/27 03:24:01;;;;;;;4.93;3.10;;;;;;;14.14;53.72;95888.16;6273254;28;20518;-70
2023/08/27 03:27:02;;;;;;;5.72;3.33;;;;;;;14.44;53.19;95894.16;6273464;28;20063;-69
2023/08/27 03:30:04;;;;;;;2.72;1.90;;;;;;;14.62;52.12;95903.00;6272895;28;20048;-69
2023/08/27 03:33:08;;;;;;;4.03;1.77;;;;;;;14.76;51.59;95899.84;6272857;28;20187;-70
2023/08/27 03:36:12;;;;;;;3.22;1.83;;;;;;;14.94;50.97;95896.38;6273135;28;20427;-69
2023/08/27 03:39:18;;;;;;;2.92;1.58;;;;;;;15.01;50.49;95881.56;6256137;28;20423;-70
2023/08/27 03:42:21;;;;;;;3.70;2.08;;;;;;;15.17;50.43;95889.66;6273071;28;20191;-70
2023/08/27 03:45:28;;;;;;;3.15;1.80;;;;;;;15.23;50.13;95891.69;6273330;28;20049;-70
2023/08/27 03:48:32;;;;;;;4.35;2.25;;;;;;;15.22;50.13;95887.34;6273113;28;20051;-70
2023/08/27 03:51:39;;;;;;;3.65;2.20;;;;;;;15.25;50.03;95884.41;6273436;28;20047;-70
2023/08/27 03:54:46;;;;;;;2.08;1.50;;;;;;;15.37;49.91;95890.31;6273075;28;20048;-70
2023/08/27 03:57:50;;;;;;;1.30;1.20;;;;;;;15.47;49.46;95899.00;6272083;28;20053;-69
2023/08/27 04:00:54;;;;;;;3.60;1.67;;;;;;;15.48;49.32;95898.03;6272691;28;20049;-71
2023/08/27 04:03:56;;;;;;;8.98;5.72;;;;;;;15.54;49.02;95893.09;6272260;28;20052;-69
2023/08/27 04:06:57;;;;;;;7.68;4.53;;;;;;;15.66;48.74;95892.69;6272251;28;20370;-68
2023/08/27 04:09:58;;;;;;;4.30;3.28;;;;;;;15.74;48.17;95883.16;6272211;28;20041;-69
2023/08/27 04:13:03;;;;;;;2.70;1.73;;;;;;;15.89;47.75;95884.25;6255040;28;20467;-69
2023/08/27 04:16:07;;;;;;;1.98;1.40;;;;;;;15.96;47.68;95887.94;6272213;28;20408;-68
2023/08/27 04:19:08;;;;;;;2.90;1.52;;;;;;;16.00;47.28;95889.31;6272213;28;20056;-69
2023/08/27 04:22:09;;;;;;;2.17;1.60;;;;;;;16.03;47.35;95883.69;6271675;28;20045;-71
2023/08/27 04:25:18;;;;;;;2.05;1.63;;;;;;;16.34;46.92;95888.47;6272524;28;20287;-69
2023/08/27 04:28:21;;;;;;;1.20;1.00;;;;;;;16.45;46.53;95888.19;6272090;28;20056;-69
2023/08/27 04:31:25;;;;;;;2.78;1.40;;;;;;;16.59;45.49;95879.63;6271457;28;20059;-70
2023/08/27 04:34:29;;;;;;;1.20;1.08;;;;;;;16.73;45.14;95885.28;6271477;28;20428;-69
2023/08/27 04:37:35;;;;;;;2.00;1.58;;;;;;;16.93;44.56;95885.84;6271956;28;20045;-70
2023/08/27 04:40:40;;;;;;;2.20;1.20;;;;;;;17.21;43.96;95894.38;6271790;28;20408;-69
2023/08/27 04:43:44;;;;;;;3.42;2.10;;;;;;;17.45;43.63;95889.09;6271744;28;20427;-69
2023/08/27 04:46:50;;;;;;;2.78;1.42;;;;;;;17.64;43.20;95890.59;6271813;28;20052;-69
2023/08/27 04:49:54;;;;;;;2.17;1.30;;;;;;;17.90;42.38;95889.59;6271430;28;20049;-69
2023/08/27 04:52:55;;;;;;;2.22;1.50;;;;;;;18.17;42.06;95894.53;6271471;28;20052;-69
2023/08/27 04:56:04;;;;;;;1.58;1.10;;;;;;;18.49;41.43;95902.59;6271833;28;20037;-69
2023/08/27 04:59:06;;;;;;;2.05;1.40;;;;;;;18.62;40.41;95884.19;6270770;28;20052;-69
2023/08/27 05:02:10;;;;;;;1.60;1.20;;;;;;;18.78;39.82;95889.47;6270966;28;20045;-70
2023/08/27 05:05:14;;;;;;;1.52;1.08;;;;;;;19.07;39.67;95893.31;6271066;28;20049;-69
2023/08/27 05:08:18;;;;;;;2.60;1.15;;;;;;;19.57;38.40;95894.63;6271029;28;20194;-69
2023/08/27 05:11:19;;;;;;;;;;;;;;;20.21;38.91;95896.06;6271200;28;20044;-69
2023/08/27 05:14:24;;;;;;;1.38;0.93;;;;;;;20.42;36.56;95896.16;6270670;28;20383;-69
2023/08/27 05:17:25;;;;;;;2.65;1.60;;;;;;;20.53;36.00;95879.72;6270399;28;20045;-69
2023/08/27 05:20:26;;;;;;;1.45;1.00;;;;;;;20.77;35.69;95896.44;6270007;28;20052;-69
2023/08/27 05:23:28;;;;;;;2.40;1.48;;;;;;;21.53;34.32;95900.38;6270510;28;20053;-70
2023/08/27 05:26:34;;;;;;;5.57;2.53;;;;;;;22.59;32.39;95896.84;6271075;28;20040;-70
2023/08/27 05:29:39;;;;;;;7.82;5.88;;;;;;;23.24;31.36;95900.88;6270638;28;20526;-70
2023/08/27 05:32:44;;;;;;;5.97;2.63;;;;;;;23.28;30.58;95885.19;6270564;28;20032;-69
2023/08/27 05:35:54;;;;;;;2.72;1.60;;;;;;;23.43;30.35;95898.44;6252397;28;20053;-70
2023/08/27 05:38:59;;;;;;;4.43;1.25;;;;;;;23.53;30.32;95888.97;6270490;28;20504;-69
2023/08/27 05:42:03;;;;;;;4.25;1.52;;;;;;;23.74;30.18;95895.19;6270681;28;20048;-70
2023/08/27 05:45:07;;;;;;;2.28;1.08;;;;;;;24.19;29.41;95895.41;6270678;28;20068;-70
2023/08/27 05:48:17;;;;;;;1.30;0.88;;;;;;;24.76;28.75;95893.84;6270259;28;20056;-69
2023/08/27 05:51:18;;;;;;;1.92;1.20;;;;;;;25.39;27.53;95889.66;6269990;28;20053;-69
2023/08/27 05:54:22;;;;;;;1.63;0.80;;;;;;;26.04;27.17;95897.50;6270000;28;20037;-69
2023/08/27 05:57:26;;;;;;;1.20;0.80;;;;;;;26.42;26.23;95886.59;6270194;28;20044;-69
2023/08/27 06:00:36;;;;;;;2.97;1.00;;;;;;;26.33;25.77;95888.75;6270168;28;20128;-69
2023/08/27 06:03:39;;;;;;;1.83;0.82;;;;;;;26.20;26.03;95894.25;6252117;28;20139;-69
2023/08/27 06:06:44;;;;;;;1.92;0.90;;;;;;;25.80;26.42;95889.16;6269803;28;20049;-69
2023/08/27 06:09:46;;;;;;;0.77;0.55;;;;;;;25.98;26.47;95885.72;6251511;28;20144;-69
2023/08/27 06:12:49;;;;;;;2.53;0.98;;;;;;;26.81;25.05;95885.38;6269597;28;20036;-70
2023/08/27 06:15:56;;;;;;;1.38;0.73;;;;;;;27.35;24.24;95885.53;6269733;28;20048;-69
2023/08/27 06:19:00;;;;;;;1.42;0.82;;;;;;;27.80;23.87;95886.97;6269502;28;20056;-69
2023/08/27 06:22:09;;;;;;;2.30;1.98;;;;;;;28.31;22.82;95844.91;6269555;28;20044;-69
2023/08/27 06:25:12;;;;;;;1.10;0.80;;;;;;;29.87;21.16;95885.47;6269670;28;20045;-70
2023/08/27 06:28:16;;;;;;;0.60;0.55;;;;;;;30.39;20.73;95877.09;6269370;28;20045;-70
2023/08/27 06:31:22;;;;;;;0.90;0.75;;;;;;;32.02;19.25;95877.44;6268520;28;20052;-71
2023/08/27 06:34:26;;;;;;;1.58;0.68;;;;;;;33.61;17.75;95881.06;6269045;28;20440;-70
2023/08/27 06:37:32;;;;;;;2.28;0.68;;;;;;;34.17;16.90;95881.94;6269033;28;20519;-71
2023/08/27 06:40:33;;;;;;;1.80;0.95;;;;;;;33.84;17.33;95872.34;6269251;28;20397;-69
2023/08/27 06:43:34;;;;;;;1.25;0.60;;;;;;;33.53;17.22;95875.03;6269009;28;20063;-69
2023/08/27 06:46:38;;;;;;;1.90;1.13;;;;;;;33.78;16.96;95862.53;6268893;28;20045;-70
2023/08/27 06:49:42;;;;;;;1.95;0.90;;;;;;;36.03;15.35;95858.28;6269015;28;20503;-71
2023/08/27 06:52:47;;;;;;;3.28;0.93;;;;;;;39.21;13.52;95861.81;6269093;28;20484;-69
2023/08/27 06:55:51;;;;;;;1.25;0.88;;;;;;;40.78;12.07;95857.56;6268967;28;20059;-70
2023/08/27 06:58:53;;;;;;;8.77;5.53;;;;;;;39.98;12.82;95854.63;6251231;28;20048;-70
2023/08/27 07:01:58;;;;;;;3.00;2.65;;;;;;;42.41;11.40;95859.31;6268480;28;20045;-70
2023/08/27 07:05:11;;;;;;;0.93;0.60;;;;;;;45.23;9.67;95855.44;6268682;28;20053;-70
2023/08/27 07:08:19;;;;;;;0.80;0.60;;;;;;;47.30;8.88;95856.91;6253235;28;20052;-70
2023/08/27 07:11:20;;;;;;;2.55;1.45;;;;;;;48.19;8.25;95855.34;6268803;28;20523;-70
2023/08/27 07:14:26;;;;;;;1.77;0.52;;;;;;;45.54;9.09;95843.75;6268907;28;20048;-70
2023/08/27 07:17:33;;;;;;;1.25;0.50;;;;;;;40.42;11.70;95825.41;6269076;28;20074;-69
2023/08/27 07:20:36;;;;;;;1.83;0.70;;;;;;;36.18;14.14;95812.44;6269049;28;20427;-70
2023/08/27 07:23:44;;;;;;;1.38;0.70;;;;;;;32.65;16.70;95788.56;6268290;28;20045;-69
2023/08/27 07:26:45;;;;;;;1.95;1.30;;;;;;;30.18;18.88;95777.47;6267766;28;20152;-69
2023/08/27 07:29:51;;;;;;;2.00;1.58;;;;;;;28.40;20.59;95778.59;6255386;28;20140;-70
2023/08/27 07:32:53;;;;;;;4.90;2.72;;;;;;;26.91;21.97;95765.22;6243403;28;20053;-72
2023/08/27 07:35:57;;;;;;;3.25;1.05;;;;;;;25.72;22.84;95762.81;6242912;28;20199;-70
2023/08/27 07:38:58;;;;;;;1.35;0.68;;;;;;;24.97;23.58;95766.28;6242842;28;20053;-69
2023/08/27 07:42:03;;;;;;;3.42;1.17;;;;;;;24.43;24.61;95759.53;6242927;28;20544;-69
2023/08/27 07:45:05;;;;;;;2.92;0.90;;;;;;;24.02;24.46;95774.09;6242939;28;20049;-69
2023/08/27 07:48:06;;;;;;;2.75;1.05;;;;;;;23.87;24.77;95766.25;6243241;28;20050;-70
2023/08/27 07:51:11;;;;;;;1.77;1.00;;;;;;;24.06;25.06;95769.94;6243542;28;20204;-72
2023/08/27 07:54:15;;;;;;;2.97;0.98;;;;;;;24.31;24.77;95761.16;6242519;28;20056;-69
2023/08/27 07:57:25;;;;;;;3.33;1.25;;;;;;;24.43;24.85;95764.91;6244470;28;20655;-70
2023/08/27 08:00:32;;;;;;;3.00;1.33;;;;;;;24.91;24.96;95760.91;6248343;28;20045;-70
2023/08/27 08:03:33;;;;;;;1.17;0.90;;;;;;;25.52;23.85;95752.22;6247642;28;20033;-70
2023/08/27 08:06:41;;;;;;;2.35;1.55;;;;;;;27.66;21.75;95768.25;6247790;28;20045;-70
2023/08/27 08:09:45;;;;;;;1.02;0.73;;;;;;;31.51;18.46;95773.63;6247389;28;20053;-70
2023/08/27 08:12:50;;;;;;;1.90;1.50;;;;;;;36.31;14.72;95782.72;6248233;28;20038;-69
2023/08/27 08:15:56;;;;;;;1.42;0.60;;;;;;;39.26;12.60;95790.13;6247833;28;20367;-69
2023/08/27 08:19:02;;;;;;;1.20;0.40;;;;;;;41.64;11.07;95787.19;6247799;28;20451;-70
2023/08/27 08:22:07;;;;;;;1.02;0.38;;;;;;;43.43;9.76;95789.22;6229515;28;20053;-69
2023/08/27 08:25:08;;;;;;;0.80;0.55;;;;;;;44.70;9.26;95785.88;6246519;28;20065;-70
2023/08/27 08:28:17;;;;;;;1.00;0.70;;;;;;;45.73;8.88;95786.75;6247163;28;20575;-70
2023/08/27 08:31:24;;;;;;;1.33;1.00;;;;;;;46.73;8.00;95781.13;6247515;28;20045;-70
2023/08/27 08:34:34;;;;;;;1.00;0.30;;;;;;;42.57;9.24;95771.91;6247453;28;20048;-70
2023/08/27 08:37:36;;;;;;;0.40;0.30;;;;;;;36.59;12.46;95756.41;6246531;28;20530;-70
2023/08/27 08:40:48;;;;;;;0.85;0.40;;;;;;;32.28;15.83;95736.09;6246971;28;20045;-70
2023/08/27 08:44:01;;;;;;;0.68;0.40;;;;;;;29.89;17.77;95731.47;6246946;28;20092;-70
2023/08/27 08:47:11;;;;;;;10.50;2.33;;;;;;;28.04;19.88;95726.41;6246987;28;20042;-69
2023/08/27 08:50:18;;;;;;;1.90;0.85;;;;;;;26.82;20.85;95711.56;6246889;28;20045;-69
2023/08/27 08:53:27;;;;;;;2.53;1.77;;;;;;;25.21;23.56;95739.63;6246906;28;20522;-72
2023/08/27 08:56:53;;;;;;;1.55;1.42;;;;;;;23.37;26.17;95744.38;6246330;28;20049;-71
2023/08/27 08:59:59;;;;;;;2.75;1.10;;;;;;;21.88;28.83;95736.28;6245912;28;20119;-71
2023/08/27 09:03:02;;;;;;;1.88;1.10;;;;;;;20.81;31.47;95745.34;6246528;28;20515;-69
2023/08/27 09:06:08;;;;;;;1.92;1.30;;;;;;;20.00;33.55;95740.06;6207655;28;20050;-71
2023/08/27 09:09:14;;;;;;;3.35;1.70;;;;;;;19.17;36.48;95752.59;6220804;28;20050;-71
2023/08/27 09:12:20;;;;;;;3.33;1.35;;;;;;;18.76;37.27;95758.25;6221479;28;20116;-69
2023/08/27 09:15:30;;;;;;;3.40;1.67;;;;;;;18.68;38.67;95755.59;6220451;28;20049;-70
2023/08/27 09:18:37;;;;;;;2.00;0.90;;;;;;;18.93;36.26;95750.13;6221926;28;20497;-70
2023/08/27 09:21:44;;;;;;;4.05;1.98;;;;;;;19.05;35.94;95740.69;6221301;28;20041;-69
2023/08/27 09:24:52;;;;;;;7.18;2.28;;;;;;;19.37;35.64;95746.75;6221567;28;20421;-70
2023/08/27 09:27:58;;;;;;;2.95;1.90;;;;;;;19.67;34.73;95743.16;6221662;28;20152;-70
2023/08/27 09:31:01;;;;;;;4.05;2.80;;;;;;;20.15;33.57;95742.72;6221333;28;20046;-69
2023/08/27 09:34:05;;;;;;;6.80;3.05;;;;;;;20.57;32.62;95742.00;6221227;28;20041;-69
2023/08/27 09:37:15;;;;;;;4.20;2.15;;;;;;;20.84;32.01;95742.28;6221060;28;20136;-69
2023/08/27 09:40:16;;;;;;;2.28;1.30;;;;;;;21.16;30.66;95745.44;6221372;28;20508;-69
2023/08/27 09:43:18;;;;;;;1.40;1.17;;;;;;;21.35;29.05;95701.97;6221232;28;20129;-69
2023/08/27 09:46:22;;;;;;;2.25;1.20;;;;;;;22.18;28.39;95739.56;6220943;28;20497;-70
2023/08/27 09:49:26;;;;;;;2.42;0.88;;;;;;;22.71;27.15;95718.31;6220715;28;20046;-69
2023/08/27 09:52:33;;;;;;;1.90;1.50;;;;;;;23.48;26.34;95729.50;6221449;28;20046;-69
2023/08/27 09:55:38;;;;;;;5.25;3.08;;;;;;;24.39;24.52;95723.28;6220934;28;20417;-69
2023/08/27 09:58:39;;;;;;;1.45;1.00;;;;;;;26.17;22.11;95717.56;6220957;28;20057;-69
2023/08/27 10:01:45;;;;;;;1.23;0.70;;;;;;;27.52;20.88;95718.19;6220091;28;20056;-69
2023/08/27 10:04:56;;;;;;;2.25;0.80;;;;;;;27.56;21.13;95716.66;6231685;28;20496;-69
2023/08/27 10:08:04;;;;;;;1.73;1.08;;;;;;;27.76;21.07;95719.00;6245234;28;20045;-70
2023/08/27 10:11:09;;;;;;;1.67;0.57;;;;;;;27.16;21.14;95717.31;6244216;28;20042;-69
2023/08/27 10:14:15;;;;;;;1.08;0.70;;;;;;;25.97;22.54;95715.13;6245066;28;20041;-71
2023/08/27 10:17:22;;;;;;;0.93;0.63;;;;;;;25.24;23.21;95709.56;6245007;28;20033;-71
2023/08/27 10:20:30;;;;;;;1.60;0.75;;;;;;;24.84;23.68;95712.53;6244468;28;20548;-71
2023/08/27 10:23:37;;;;;;;1.05;0.80;;;;;;;24.80;23.24;95705.94;6244751;28;20037;-71
2023/08/27 10:26:43;;;;;;;2.22;0.68;;;;;;;25.25;22.65;95711.22;6244999;28;20045;-70
2023/08/27 10:29:46;;;;;;;1.23;0.60;;;;;;;25.94;22.16;95707.47;6244308;28;20052;-70
2023/08/27 10:32:52;;;;;;;1.00;0.70;;;;;;;26.07;21.13;95700.28;6243938;28;20049;-70
2023/08/27 10:35:55;;;;;;;1.27;0.77;;;;;;;25.65;21.34;95697.41;6244134;28;20060;-70
2023/08/27 10:39:07;;;;;;;1.30;0.70;;;;;;;25.04;22.35;95707.81;6244524;28;20045;-70
2023/08/27 10:42:33;;;;;;;1.70;0.77;;;;;;;24.69;22.36;95699.38;6244599;28;20184;-70
2023/08/27 10:45:37;;;;;;;0.85;0.52;;;;;;;24.29;22.78;95699.56;6244064;28;20057;-70
2023/08/27 10:48:39;;;;;;;0.80;0.60;;;;;;;23.80;23.31;95694.78;6244132;28;20057;-69
2023/08/27 10:51:43;;;;;;;1.25;0.65;;;;;;;24.31;23.02;95685.91;6244411;28;20037;-69
2023/08/27 10:54:58;;;;;;;1.42;0.85;;;;;;;25.58;21.74;95680.47;6243278;28;20123;-69
2023/08/27 10:58:15;;;;;;;1.35;0.85;;;;;;;26.05;21.46;95686.22;6243953;28;20096;-69
2023/08/27 11:01:20;;;;;;;2.05;0.77;;;;;;;25.34;22.47;95685.69;6244214;28;20052;-70
2023/08/27 11:04:54;;;;;;;1.58;0.88;;;;;;;25.81;22.09;95677.13;6243911;28;20045;-70
2023/08/27 11:07:59;;;;;;;1.35;0.75;;;;;;;27.68;20.24;95678.81;6237830;28;20149;-69
2023/08/27 11:11:22;;;;;;;1.20;0.70;;;;;;;29.23;19.40;95689.75;6243472;28;20100;-69
2023/08/27 11:14:25;;;;;;;0.93;0.68;;;;;;;30.12;18.50;95686.19;6244440;28;20076;-69
2023/08/27 11:17:28;;;;;;;0.95;0.55;;;;;;;30.69;17.62;95679.56;6244075;28;20487;-70
2023/08/27 11:20:29;;;;;;;1.08;0.60;;;;;;;30.80;17.50;95682.19;6243971;28;20041;-69
2023/08/27 11:23:36;;;;;;;1.13;0.70;;;;;;;31.29;17.36;95687.50;6243955;28;20053;-69
2023/08/27 11:26:41;;;;;;;1.05;0.73;;;;;;;31.61;16.58;95691.31;6244426;28;20041;-69
2023/08/27 11:30:02;;;;;;;1.52;0.88;;;;;;;32.02;16.73;95681.53;6243478;28;20615;-69
2023/08/27 11:33:08;;;;;;;1.13;0.65;;;;;;;31.97;16.22;95668.72;6247671;28;20428;-69
2023/08/27 11:36:15;;;;;;;1.10;0.60;;;;;;;31.52;16.21;95682.81;6248713;28;20139;-69
2023/08/27 11:39:19;;;;;;;0.55;0.40;;;;;;;31.35;15.77;95684.81;6248628;28;20041;-70
2023/08/27 11:42:23;;;;;;;0.90;0.60;;;;;;;32.17;15.22;95675.34;6248652;28;20041;-70
2023/08/27 11:45:40;;;;;;;1.08;0.70;;;;;;;32.13;15.25;95679.66;6248577;28;20037;-70
2023/08/27 11:48:48;;;;;;;1.60;1.25;;;;;;;31.26;16.01;95670.91;6248551;28;20041;-70
2023/08/27 11:51:57;;;;;;;1.10;0.70;;;;;;;30.82;16.01;95673.75;6248509;28;20467;-70
2023/08/27 11:55:01;;;;;;;1.17;0.77;;;;;;;29.42;17.37;95676.78;6248296;28;20500;-70
2023/08/27 11:58:10;;;;;;;2.95;1.17;;;;;;;29.23;17.54;95663.50;6248211;28;20041;-70
2023/08/27 12:01:17;;;;;;;5.13;0.82;;;;;;;28.17;18.48;95658.56;6248209;28;20041;-70
2023/08/27 12:04:25;;;;;;;1.00;0.68;;;;;;;26.42;19.83;95663.53;6247788;28;20053;-71
2023/08/27 12:07:29;;;;;;;2.83;1.20;;;;;;;24.96;21.75;95651.56;6247637;28;20060;-70
2023/08/27 12:10:32;;;;;;;3.13;1.33;;;;;;;24.10;22.88;95655.63;6248084;28;20195;-70
2023/08/27 12:13:38;;;;;;;4.85;2.03;;;;;;;23.40;24.09;95670.66;6246901;28;20500;-70
2023/08/27 12:16:43;;;;;;;3.22;1.38;;;;;;;22.71;24.67;95661.19;6247996;28;20053;-70
2023/08/27 12:19:46;;;;;;;2.13;1.20;;;;;;;22.16;25.54;95663.91;6247173;28;20133;-70
2023/08/27 12:22:50;;;;;;;3.97;1.45;;;;;;;21.66;27.35;95665.97;6247018;28;20049;-70
2023/08/27 12:25:58;;;;;;;2.30;1.15;;;;;;;21.71;27.83;95650.13;6246734;28;20049;-69
2023/08/27 12:29:05;;;;;;;2.65;1.45;;;;;;;22.38;27.85;95673.47;6246786;28;20049;-70
2023/08/27 12:32:17;;;;;;;2.30;0.95;;;;;;;22.18;28.39;95675.28;6247379;28;20049;-70
2023/08/27 12:35:19;;;;;;;2.65;1.25;;;;;;;22.06;28.86;95676.84;6247401;28;20048;-70
2023/08/27 12:38:26;;;;;;;3.00;1.50;;;;;;;22.15;28.75;95678.31;6247561;28;20308;-70
2023/08/27 12:41:29;;;;;;;2.25;1.27;;;;;;;22.25;28.50;95670.78;6247104;28;20049;-70
2023/08/27 12:44:31;;;;;;;2.13;1.38;;;;;;;21.81;28.92;95674.69;6245877;28;20060;-70
2023/08/27 12:47:35;;;;;;;4.22;1.45;;;;;;;21.17;29.94;95674.88;6246385;28;20053;-70
2023/08/27 12:50:44;;;;;;;2.25;1.60;;;;;;;20.46;30.76;95670.31;6246958;28;20071;-70
2023/08/27 12:53:45;;;;;;;1.38;1.05;;;;;;;20.32;31.24;95663.19;6246425;28;20045;-69
2023/08/27 12:56:49;;;;;;;4.25;1.67;;;;;;;20.46;31.03;95658.81;6246874;28;20071;-69
2023/08/27 12:59:54;;;;;;;2.92;1.98;;;;;;;20.91;30.95;95660.28;6246969;28;20115;-69
2023/08/27 13:02:55;;;;;;;8.82;4.57;;;;;;;21.21;30.46;95662.78;6246777;28;20060;-69
2023/08/27 13:05:59;;;;;;;3.90;3.17;;;;;;;21.13;30.59;95657.56;6246484;28;20053;-69
2023/08/27 13:09:06;;;;;;;5.00;3.03;;;;;;;20.98;31.08;95660.34;6246223;28;20053;-69
2023/08/27 13:12:09;;;;;;;5.70;3.97;;;;;;;20.50;31.35;95644.91;6246388;28;20187;-70
2023/08/27 13:15:10;;;;;;;5.43;3.70;;;;;;;20.19;32.18;95658.56;6246180;28;20050;-70
2023/08/27 13:18:13;;;;;;;4.60;2.83;;;;;;;20.13;32.39;95660.13;6246037;28;20049;-69
2023/08/27 13:21:19;;;;;;;5.28;2.45;;;;;;;20.03;32.39;95654.25;6246121;28;20041;-70
2023/08/27 13:24:26;;;;;;;5.30;2.92;;;;;;;19.79;32.73;95662.56;6246043;28;20144;-71
2023/08/27 13:27:30;;;;;;;2.92;1.80;;;;;;;19.38;33.35;95660.38;6245371;28;20041;-68
2023/08/27 13:30:34;;;;;;;4.20;1.75;;;;;;;19.24;33.70;95665.50;6245985;28;20463;-70
2023/08/27 13:33:42;;;;;;;2.28;1.92;;;;;;;19.18;33.95;95657.44;6245546;28;20528;-69
2023/08/27 13:36:46;;;;;;;2.17;1.50;;;;;;;19.25;33.47;95661.03;6245294;28;20054;-69
2023/08/27 13:39:47;;;;;;;5.70;4.30;;;;;;;19.47;33.25;95665.44;6244811;28;20049;-69
2023/08/27 13:42:51;;;;;;;4.57;2.28;;;;;;;19.68;32.80;95662.06;6228496;28;20045;-69
2023/08/27 13:45:56;;;;;;;4.50;2.17;;;;;;;19.70;32.65;95662.72;6245703;28;20049;-69
2023/08/27 13:48:57;;;;;;;;;;;;;;;19.66;32.09;95664.06;6245177;28;20056;-69
2023/08/27 13:52:01;;;;;;;1.87;1.00;;;;;;;19.27;33.11;95665.16;6245538;28;20395;-69
2023/08/27 13:55:03;;;;;;;1.92;1.00;;;;;;;19.13;33.12;95673.97;6244104;28;20049;-69
2023/08/27 13:58:10;;;;;;;1.42;0.93;;;;;;;18.93;33.03;95667.50;6245132;28;20128;-69
2023/08/27 14:01:17;;;;;;;1.65;1.23;;;;;;;18.71;33.35;95675.34;6245339;28;20044;-69
2023/08/27 14:04:20;;;;;;;2.60;1.52;;;;;;;18.43;34.24;95666.19;6243643;28;20045;-69
2023/08/27 14:07:27;;;;;;;4.93;3.55;;;;;;;18.11;34.81;95670.75;6245055;28;20045;-69
2023/08/27 14:10:29;;;;;;;1.95;1.33;;;;;;;17.68;35.55;95663.09;6244779;28;20049;-70
2023/08/27 14:13:33;;;;;;;2.60;1.42;;;;;;;17.50;36.12;95670.50;6244437;28;20092;-70
2023/08/27 14:16:34;;;;;;;3.55;1.80;;;;;;;17.33;36.79;95679.53;6244359;28;20041;-69
2023/08/27 14:19:35;;;;;;;3.97;1.80;;;;;;;17.19;37.22;95681.91;6244351;28;20053;-69
2023/08/27 14:22:36;;;;;;;6.45;4.70;;;;;;;16.95;38.67;95698.69;6244242;28;20041;-69
2023/08/27 14:25:41;;;;;;;4.03;1.50;;;;;;;16.60;39.96;95692.72;6244162;28;20045;-69
2023/08/27 14:28:43;;;;;;;4.50;1.30;;;;;;;16.13;41.08;95685.34;6226010;28;20523;-69
2023/08/27 14:31:46;;;;;;;1.42;1.23;;;;;;;15.85;41.91;95699.84;6244024;28;20516;-69
2023/08/27 14:34:49;;;;;;;7.90;3.35;;;;;;;15.57;42.67;95702.72;6244004;28;20132;-70